createdAt,value
2018-09-30T00:00:03.245Z,12.00
2018-09-30T00:02:32.474Z,11.70
2018-09-30T00:05:01.655Z,11.50
2018-09-30T00:07:30.790Z,11.60
2018-09-30T00:09:59.929Z,11.30
2018-09-30T00:12:29.092Z,11.30
2018-09-30T00:14:58.237Z,11.30
2018-09-30T00:17:27.398Z,11.40
2018-09-30T00:19:56.592Z,11.10
2018-09-30T00:22:25.742Z,11.00
2018-09-30T00:25:00.273Z,11.10
2018-09-30T00:27:29.498Z,11.10
2018-09-30T00:29:58.666Z,10.90
2018-09-30T00:32:27.807Z,11.00
2018-09-30T00:34:56.955Z,11.00
2018-09-30T00:37:26.380Z,11.00
2018-09-30T00:39:55.554Z,11.10
2018-09-30T00:42:24.806Z,10.90
2018-09-30T00:44:54.023Z,11.10
2018-09-30T00:47:23.170Z,11.10
2018-09-30T00:49:52.399Z,11.20
2018-09-30T00:52:21.634Z,11.20
2018-09-30T00:54:51.143Z,11.20
2018-09-30T00:57:20.481Z,11.10
2018-09-30T00:59:49.642Z,10.90
2018-09-30T01:02:18.788Z,11.00
2018-09-30T01:04:48.035Z,10.90
2018-09-30T01:07:17.182Z,10.60
2018-09-30T01:09:46.458Z,10.50
2018-09-30T01:12:15.586Z,10.50
2018-09-30T01:14:44.767Z,10.50
2018-09-30T01:17:14.056Z,10.80
2018-09-30T01:19:43.217Z,10.80
2018-09-30T01:22:12.345Z,10.90
2018-09-30T01:24:41.469Z,10.90
2018-09-30T01:27:10.601Z,11.00
2018-09-30T01:29:39.762Z,11.00
2018-09-30T01:32:08.929Z,10.90
2018-09-30T01:34:38.063Z,10.90
2018-09-30T01:37:07.324Z,10.50
2018-09-30T01:39:36.519Z,10.70
2018-09-30T01:42:05.772Z,10.70
2018-09-30T01:44:34.939Z,10.70
2018-09-30T01:47:04.180Z,10.70
2018-09-30T01:49:33.308Z,10.80
2018-09-30T01:52:13.749Z,10.80
2018-09-30T01:54:42.915Z,10.60
2018-09-30T01:57:12.003Z,10.60
2018-09-30T01:59:41.144Z,10.70
2018-09-30T02:02:10.266Z,10.70
2018-09-30T02:04:39.447Z,10.80
2018-09-30T02:07:08.597Z,10.50
2018-09-30T02:09:37.710Z,10.20
2018-09-30T02:12:06.890Z,10.10
2018-09-30T02:14:36.034Z,10.30
2018-09-30T02:17:05.270Z,10.40
2018-09-30T02:19:34.581Z,10.50
2018-09-30T02:22:03.728Z,10.70
2018-09-30T02:24:32.990Z,10.80
2018-09-30T02:27:02.069Z,10.70
2018-09-30T02:29:31.241Z,10.70
2018-09-30T02:32:00.365Z,10.50
2018-09-30T02:34:29.512Z,10.50
2018-09-30T02:36:58.705Z,10.40
2018-09-30T02:39:27.851Z,10.40
2018-09-30T02:41:56.982Z,10.10
2018-09-30T02:44:26.075Z,10.20
2018-09-30T02:46:55.225Z,10.30
2018-09-30T02:49:24.370Z,10.20
2018-09-30T02:51:53.702Z,10.30
2018-09-30T02:54:22.832Z,10.40
2018-09-30T02:56:51.993Z,10.40
2018-09-30T02:59:21.346Z,10.40
2018-09-30T03:01:50.690Z,10.40
2018-09-30T03:04:19.934Z,10.40
2018-09-30T03:06:54.558Z,10.40
2018-09-30T03:09:23.711Z,10.40
2018-09-30T03:11:52.861Z,10.40
2018-09-30T03:14:22.385Z,10.30
2018-09-30T03:16:51.513Z,10.30
2018-09-30T03:19:20.708Z,10.20
2018-09-30T03:21:49.889Z,10.30
2018-09-30T03:24:19.013Z,10.20
2018-09-30T03:26:48.145Z,10.20
2018-09-30T03:29:17.318Z,10.20
2018-09-30T03:31:52.940Z,10.20
2018-09-30T03:34:22.055Z,10.20
2018-09-30T03:36:51.181Z,9.70
2018-09-30T03:39:20.394Z,9.90
2018-09-30T03:41:49.453Z,10.10
2018-09-30T03:44:18.667Z,9.90
2018-09-30T03:46:47.789Z,9.60
2018-09-30T03:49:16.890Z,9.80
2018-09-30T03:51:46.015Z,9.90
2018-09-30T03:54:15.141Z,10.00
2018-09-30T03:56:44.609Z,10.00
2018-09-30T03:59:13.676Z,10.10
2018-09-30T04:01:42.817Z,9.90
2018-09-30T04:04:11.994Z,9.90
2018-09-30T04:06:41.153Z,9.90
2018-09-30T04:09:10.586Z,9.80
2018-09-30T04:11:39.750Z,9.80
2018-09-30T04:14:08.863Z,9.80
2018-09-30T04:16:38.024Z,9.80
2018-09-30T04:19:07.141Z,9.90
2018-09-30T04:21:36.246Z,9.90
2018-09-30T04:24:09.070Z,9.90
2018-09-30T04:26:39.248Z,10.00
2018-09-30T04:29:08.464Z,9.90
2018-09-30T04:31:37.985Z,10.00
2018-09-30T04:34:07.125Z,9.90
2018-09-30T04:36:36.649Z,9.90
2018-09-30T04:39:07.935Z,9.80
2018-09-30T04:41:37.075Z,9.70
2018-09-30T04:44:06.206Z,9.60
2018-09-30T04:46:35.361Z,9.20
2018-09-30T04:49:04.484Z,9.10
2018-09-30T04:51:33.623Z,9.30
2018-09-30T04:54:02.773Z,9.40
2018-09-30T04:56:31.894Z,9.60
2018-09-30T04:59:01.026Z,9.60
2018-09-30T05:01:30.203Z,9.60
2018-09-30T05:03:59.346Z,9.60
2018-09-30T05:06:28.457Z,9.50
2018-09-30T05:08:57.617Z,9.50
2018-09-30T05:11:26.777Z,9.50
2018-09-30T05:13:55.900Z,9.30
2018-09-30T05:16:25.089Z,9.30
2018-09-30T05:18:54.183Z,9.50
2018-09-30T05:21:23.302Z,9.60
2018-09-30T05:23:52.429Z,9.60
2018-09-30T05:26:21.579Z,9.70
2018-09-30T05:28:50.722Z,9.80
2018-09-30T05:31:19.844Z,9.80
2018-09-30T05:33:48.984Z,9.80
2018-09-30T05:36:18.132Z,9.80
2018-09-30T05:38:47.290Z,9.70
2018-09-30T05:41:16.422Z,9.80
2018-09-30T05:43:45.536Z,9.80
2018-09-30T05:46:14.721Z,9.70
2018-09-30T05:48:43.783Z,9.70
2018-09-30T05:51:13.013Z,9.80
2018-09-30T05:53:42.167Z,9.70
2018-09-30T05:56:11.354Z,9.70
2018-09-30T05:58:40.537Z,9.70
2018-09-30T06:01:09.729Z,9.60
2018-09-30T06:03:38.901Z,9.60
2018-09-30T06:06:08.088Z,9.70
2018-09-30T06:08:37.796Z,9.70
2018-09-30T06:11:06.913Z,9.70
2018-09-30T06:13:36.058Z,9.60
2018-09-30T06:16:05.346Z,9.50
2018-09-30T06:18:34.351Z,9.60
2018-09-30T06:21:03.476Z,9.60
2018-09-30T06:23:32.786Z,9.60
2018-09-30T06:26:01.946Z,9.40
2018-09-30T06:28:31.089Z,9.60
2018-09-30T06:31:00.197Z,9.80
2018-09-30T06:33:29.360Z,9.80
2018-09-30T06:35:58.491Z,9.60
2018-09-30T06:38:27.621Z,9.70
2018-09-30T06:40:56.804Z,9.80
2018-09-30T06:43:25.964Z,9.90
2018-09-30T06:45:55.069Z,9.90
2018-09-30T06:48:24.214Z,9.90
2018-09-30T06:50:53.401Z,9.70
2018-09-30T06:53:22.542Z,9.70
2018-09-30T06:55:51.733Z,9.90
2018-09-30T06:58:20.905Z,10.00
2018-09-30T07:00:50.075Z,10.10
2018-09-30T07:03:21.179Z,10.10
2018-09-30T07:05:52.516Z,10.00
2018-09-30T07:08:21.716Z,10.20
2018-09-30T07:10:52.955Z,10.30
2018-09-30T07:13:24.359Z,10.20
2018-09-30T07:15:53.515Z,10.40
2018-09-30T07:18:22.671Z,10.40
2018-09-30T07:20:51.830Z,10.40
2018-09-30T07:23:21.027Z,10.60
2018-09-30T07:25:50.159Z,10.60
2018-09-30T07:28:19.348Z,10.60
2018-09-30T07:30:48.627Z,10.70
2018-09-30T07:33:17.830Z,10.80
2018-09-30T07:35:46.981Z,10.80
2018-09-30T07:38:16.107Z,10.90
2018-09-30T07:40:45.410Z,11.00
2018-09-30T07:43:14.600Z,11.10
2018-09-30T07:45:44.141Z,11.10
2018-09-30T07:48:13.545Z,11.10
2018-09-30T07:50:42.687Z,11.20
2018-09-30T07:53:12.266Z,11.20
2018-09-30T07:55:41.370Z,11.30
2018-09-30T07:58:10.502Z,11.40
2018-09-30T08:00:39.651Z,11.40
2018-09-30T08:03:08.851Z,11.40
2018-09-30T08:05:38.018Z,11.50
2018-09-30T08:08:07.248Z,11.60
2018-09-30T08:10:36.500Z,11.60
2018-09-30T08:13:05.699Z,11.60
2018-09-30T08:15:34.850Z,11.70
2018-09-30T08:18:04.050Z,11.80
2018-09-30T08:20:33.237Z,12.00
2018-09-30T08:23:02.394Z,12.00
2018-09-30T08:25:31.522Z,12.10
2018-09-30T08:28:00.661Z,12.10
2018-09-30T08:30:29.910Z,12.20
2018-09-30T08:32:59.042Z,12.30
2018-09-30T08:35:28.269Z,12.40
2018-09-30T08:38:02.557Z,12.40
2018-09-30T08:40:37.200Z,12.40
2018-09-30T08:43:06.428Z,12.60
2018-09-30T08:45:35.602Z,12.80
2018-09-30T08:48:04.766Z,12.80
2018-09-30T08:50:34.250Z,12.90
2018-09-30T08:53:03.462Z,13.10
2018-09-30T08:55:33.048Z,13.20
2018-09-30T08:58:02.216Z,13.40
2018-09-30T09:00:31.365Z,13.60
2018-09-30T09:03:00.775Z,13.80
2018-09-30T09:05:29.987Z,14.00
2018-09-30T09:07:59.208Z,14.00
2018-09-30T09:10:28.367Z,14.00
2018-09-30T09:12:57.576Z,14.10
2018-09-30T09:15:26.821Z,14.10
2018-09-30T09:17:55.954Z,14.10
2018-09-30T09:20:25.364Z,14.20
2018-09-30T09:22:54.709Z,14.30
2018-09-30T09:25:23.846Z,14.30
2018-09-30T09:27:53.117Z,14.30
2018-09-30T09:30:22.509Z,14.40
2018-09-30T09:32:51.753Z,14.50
2018-09-30T09:35:21.000Z,14.70
2018-09-30T09:37:50.147Z,14.80
2018-09-30T09:40:22.426Z,14.90
2018-09-30T09:42:51.702Z,15.10
2018-09-30T09:45:20.891Z,15.20
2018-09-30T09:47:50.026Z,15.20
2018-09-30T09:50:19.244Z,15.10
2018-09-30T09:52:48.533Z,15.20
2018-09-30T09:55:17.680Z,15.30
2018-09-30T09:57:46.829Z,15.30
2018-09-30T10:00:21.323Z,15.40
2018-09-30T10:02:50.566Z,15.40
2018-09-30T10:05:19.733Z,15.50
2018-09-30T10:07:48.962Z,15.60
2018-09-30T10:10:18.073Z,15.70
2018-09-30T10:12:47.550Z,15.70
2018-09-30T10:15:16.790Z,15.80
2018-09-30T10:17:45.973Z,15.80
2018-09-30T10:20:15.202Z,16.00
2018-09-30T10:22:44.369Z,16.10
2018-09-30T10:25:13.611Z,16.20
2018-09-30T10:27:42.829Z,16.30
2018-09-30T10:30:11.986Z,16.30
2018-09-30T10:32:41.313Z,16.30
2018-09-30T10:35:10.578Z,16.30
2018-09-30T10:37:39.901Z,16.30
2018-09-30T10:40:09.272Z,16.40
2018-09-30T10:42:38.480Z,16.50
2018-09-30T10:45:07.978Z,16.60
2018-09-30T10:47:37.122Z,16.70
2018-09-30T10:50:06.336Z,16.70
2018-09-30T10:52:35.647Z,16.80
2018-09-30T10:55:04.821Z,16.90
2018-09-30T10:57:33.978Z,17.00
2018-09-30T11:00:03.185Z,17.00
2018-09-30T11:02:32.403Z,17.10
2018-09-30T11:05:01.701Z,17.00
2018-09-30T11:07:31.586Z,17.00
2018-09-30T11:10:01.033Z,17.00
2018-09-30T11:12:31.881Z,17.00
2018-09-30T11:15:02.081Z,17.10
2018-09-30T11:17:34.047Z,17.20
2018-09-30T11:20:04.760Z,17.20
2018-09-30T11:22:35.145Z,17.30
2018-09-30T11:25:05.998Z,17.50
2018-09-30T11:27:36.446Z,17.40
2018-09-30T11:30:05.881Z,17.50
2018-09-30T11:32:35.351Z,17.40
2018-09-30T11:35:06.039Z,17.50
2018-09-30T11:37:35.545Z,17.60
2018-09-30T11:40:05.953Z,17.80
2018-09-30T11:42:35.450Z,17.90
2018-09-30T11:45:05.192Z,17.90
2018-09-30T11:47:35.613Z,18.00
2018-09-30T11:50:05.002Z,18.00
2018-09-30T11:52:34.377Z,18.20
2018-09-30T11:55:03.670Z,18.30
2018-09-30T11:57:33.495Z,18.50
2018-09-30T12:00:02.803Z,18.50
2018-09-30T12:02:32.111Z,18.50
2018-09-30T12:05:01.322Z,18.50
2018-09-30T12:07:30.530Z,18.50
2018-09-30T12:09:59.759Z,18.50
2018-09-30T12:12:29.032Z,18.50
2018-09-30T12:14:58.990Z,18.60
2018-09-30T12:17:28.453Z,18.70
2018-09-30T12:19:58.098Z,18.90
2018-09-30T12:22:27.401Z,18.80
2018-09-30T12:24:56.680Z,18.70
2018-09-30T12:27:26.006Z,18.70
2018-09-30T12:29:55.379Z,18.70
2018-09-30T12:32:25.062Z,18.70
2018-09-30T12:34:54.246Z,18.80
2018-09-30T12:37:23.544Z,18.90
2018-09-30T12:39:52.740Z,19.00
2018-09-30T12:42:22.134Z,19.20
2018-09-30T12:44:51.591Z,19.20
2018-09-30T12:47:20.941Z,19.20
2018-09-30T12:49:50.347Z,19.20
2018-09-30T12:52:20.347Z,19.20
2018-09-30T12:54:49.759Z,19.10
2018-09-30T12:57:19.003Z,19.10
2018-09-30T12:59:48.154Z,19.10
2018-09-30T13:02:17.607Z,19.10
2018-09-30T13:04:46.834Z,19.20
2018-09-30T13:07:15.973Z,19.20
2018-09-30T13:09:45.458Z,19.20
2018-09-30T13:12:14.724Z,19.30
2018-09-30T13:14:44.461Z,19.30
2018-09-30T13:17:13.680Z,19.30
2018-09-30T13:19:42.925Z,19.30
2018-09-30T13:22:12.114Z,19.20
2018-09-30T13:24:41.631Z,19.20
2018-09-30T13:27:10.814Z,19.30
2018-09-30T13:29:40.039Z,19.40
2018-09-30T13:32:09.278Z,19.50
2018-09-30T13:34:38.533Z,19.50
2018-09-30T13:37:08.028Z,19.50
2018-09-30T13:39:37.241Z,19.50
2018-09-30T13:42:06.456Z,19.50
2018-09-30T13:44:35.614Z,19.50
2018-09-30T13:47:04.802Z,19.60
2018-09-30T13:49:34.034Z,19.60
2018-09-30T13:52:03.404Z,19.50
2018-09-30T13:54:32.574Z,19.50
2018-09-30T13:57:01.762Z,19.50
2018-09-30T13:59:31.024Z,19.50
2018-09-30T14:02:00.657Z,19.50
2018-09-30T14:04:29.842Z,19.50
2018-09-30T14:06:59.047Z,19.60
2018-09-30T14:09:28.509Z,19.70
2018-09-30T14:11:57.808Z,19.60
2018-09-30T14:14:27.109Z,19.60
2018-09-30T14:16:56.361Z,19.70
2018-09-30T14:19:25.578Z,19.70
2018-09-30T14:21:54.837Z,19.60
2018-09-30T14:24:24.088Z,19.60
2018-09-30T14:26:53.277Z,19.60
2018-09-30T14:29:22.415Z,19.60
2018-09-30T14:31:51.590Z,19.40
2018-09-30T14:34:21.282Z,19.50
2018-09-30T14:36:50.429Z,19.50
2018-09-30T14:39:19.590Z,19.60
2018-09-30T14:41:48.797Z,19.70
2018-09-30T14:44:17.980Z,19.70
2018-09-30T14:46:47.157Z,19.70
2018-09-30T14:49:16.458Z,19.60
2018-09-30T14:51:45.727Z,19.60
2018-09-30T14:54:14.958Z,19.50
2018-09-30T14:56:44.177Z,19.50
2018-09-30T14:59:13.380Z,19.40
2018-09-30T15:01:42.551Z,19.60
2018-09-30T15:04:11.833Z,19.60
2018-09-30T15:06:41.064Z,19.50
2018-09-30T15:09:11.256Z,19.50
2018-09-30T15:11:40.785Z,19.40
2018-09-30T15:14:10.208Z,19.40
2018-09-30T15:19:14.864Z,19.50
2018-09-30T15:21:44.081Z,19.40
2018-09-30T15:24:13.328Z,19.40
2018-09-30T15:26:42.525Z,19.40
2018-09-30T15:29:11.921Z,19.30
2018-09-30T15:31:41.474Z,19.30
2018-09-30T15:34:10.659Z,19.30
2018-09-30T15:36:40.776Z,19.30
2018-09-30T15:39:11.541Z,19.20
2018-09-30T15:41:41.189Z,19.10
2018-09-30T15:44:11.325Z,19.10
2018-09-30T15:46:40.668Z,19.00
2018-09-30T15:49:10.106Z,19.10
2018-09-30T15:51:39.362Z,19.10
2018-09-30T15:54:08.565Z,19.00
2018-09-30T15:56:37.763Z,19.00
2018-09-30T15:59:06.917Z,19.10
2018-09-30T16:01:36.106Z,19.00
2018-09-30T16:04:05.272Z,19.00
2018-09-30T16:06:34.502Z,19.00
2018-09-30T16:09:04.062Z,18.90
2018-09-30T16:11:33.359Z,18.90
2018-09-30T16:14:02.509Z,18.80
2018-09-30T16:16:31.685Z,18.80
2018-09-30T16:19:00.859Z,18.70
2018-09-30T16:21:30.091Z,18.80
2018-09-30T16:23:59.163Z,18.60
2018-09-30T16:26:28.400Z,18.60
2018-09-30T16:28:57.957Z,18.50
2018-09-30T16:31:27.153Z,18.50
2018-09-30T16:33:56.356Z,18.50
2018-09-30T16:36:25.588Z,18.40
2018-09-30T16:38:54.795Z,18.30
2018-09-30T16:41:24.003Z,18.20
2018-09-30T16:43:53.274Z,18.20
2018-09-30T16:46:22.432Z,18.10
2018-09-30T16:48:51.715Z,18.00
2018-09-30T16:51:20.892Z,18.00
2018-09-30T16:53:50.129Z,17.90
2018-09-30T16:56:19.402Z,17.80
2018-09-30T16:58:48.603Z,17.80
2018-09-30T17:01:17.820Z,17.80
2018-09-30T17:03:47.212Z,17.70
2018-09-30T17:06:16.602Z,17.70
2018-09-30T17:08:45.790Z,17.60
2018-09-30T17:11:15.080Z,17.50
2018-09-30T17:13:44.517Z,17.40
2018-09-30T17:16:13.831Z,17.30
2018-09-30T17:18:43.205Z,17.30
2018-09-30T17:21:12.548Z,17.30
2018-09-30T17:23:41.847Z,17.20
2018-09-30T17:26:11.234Z,17.10
2018-09-30T17:28:40.565Z,17.10
2018-09-30T17:31:09.999Z,17.00
2018-09-30T17:33:39.265Z,17.00
2018-09-30T17:36:09.120Z,16.90
2018-09-30T17:38:38.539Z,16.90
2018-09-30T17:41:07.918Z,16.80
2018-09-30T17:43:37.344Z,16.80
2018-09-30T17:46:06.745Z,16.70
2018-09-30T17:48:36.107Z,16.70
2018-09-30T17:51:05.504Z,16.70
2018-09-30T17:53:34.956Z,16.70
2018-09-30T17:56:04.861Z,16.60
2018-09-30T17:58:34.250Z,16.60
2018-09-30T18:01:03.802Z,16.50
2018-09-30T18:03:33.171Z,16.50
2018-09-30T18:06:02.581Z,16.50
2018-09-30T18:08:31.937Z,16.40
2018-09-30T18:11:01.402Z,16.40
2018-09-30T18:13:30.695Z,16.40
2018-09-30T18:16:00.105Z,16.30
2018-09-30T18:18:29.542Z,16.30
2018-09-30T18:20:58.915Z,16.30
2018-09-30T18:23:28.404Z,16.30
2018-09-30T18:25:57.862Z,16.20
2018-09-30T18:28:27.557Z,16.20
2018-09-30T18:30:56.703Z,16.20
2018-09-30T18:33:26.216Z,16.20
2018-09-30T18:35:55.681Z,16.10
2018-09-30T18:38:25.192Z,16.10
2018-09-30T18:40:54.646Z,16.10
2018-09-30T18:43:24.667Z,16.10
2018-09-30T18:45:54.098Z,16.00
2018-09-30T18:48:23.607Z,16.00
2018-09-30T18:50:53.116Z,15.90
2018-09-30T18:53:22.707Z,15.90
2018-09-30T18:55:52.393Z,15.90
2018-09-30T18:58:22.637Z,15.90
2018-09-30T19:00:52.155Z,15.80
2018-09-30T19:03:21.704Z,15.80
2018-09-30T19:05:51.344Z,15.90
2018-09-30T19:08:20.850Z,15.90
2018-09-30T19:10:50.438Z,15.80
2018-09-30T19:13:19.967Z,15.80
2018-09-30T19:15:49.680Z,15.80
2018-09-30T19:18:21.207Z,15.80
2018-09-30T19:20:52.787Z,15.90
2018-09-30T19:23:22.419Z,15.80
2018-09-30T19:25:51.732Z,15.70
2018-09-30T19:28:21.936Z,15.70
2018-09-30T19:30:51.224Z,15.70
2018-09-30T19:33:21.249Z,15.80
2018-09-30T19:35:50.533Z,15.90
2018-09-30T19:38:20.002Z,15.90
2018-09-30T19:40:49.240Z,15.90
2018-09-30T19:43:18.469Z,15.80
2018-09-30T19:45:47.727Z,15.70
2018-09-30T19:48:17.043Z,15.70
2018-09-30T19:50:46.224Z,15.80
2018-09-30T19:53:15.445Z,15.90
2018-09-30T19:55:44.685Z,15.90
2018-09-30T19:58:13.914Z,15.80
2018-09-30T20:00:43.182Z,15.80
2018-09-30T20:03:12.435Z,15.70
2018-09-30T20:05:41.657Z,15.60
2018-09-30T20:08:10.860Z,15.50
2018-09-30T20:10:40.125Z,15.40
2018-09-30T20:13:09.365Z,15.50
2018-09-30T20:15:38.584Z,15.50
2018-09-30T20:18:07.800Z,15.30
2018-09-30T20:20:36.962Z,15.30
2018-09-30T20:23:06.107Z,15.40
2018-09-30T20:25:35.469Z,15.40
2018-09-30T20:28:04.690Z,15.20
2018-09-30T20:30:33.977Z,15.10
2018-09-30T20:33:03.171Z,15.20
2018-09-30T20:35:32.411Z,15.00
2018-09-30T20:38:01.587Z,14.90
2018-09-30T20:40:30.746Z,14.90
2018-09-30T20:42:59.973Z,15.00
2018-09-30T20:45:29.199Z,14.90
2018-09-30T20:47:58.565Z,14.80
2018-09-30T20:50:27.809Z,14.80
2018-09-30T20:52:57.161Z,14.80
2018-09-30T20:55:26.627Z,14.90
2018-09-30T20:57:55.857Z,14.90
2018-09-30T21:00:25.296Z,15.00
2018-09-30T21:02:54.543Z,15.00
2018-09-30T21:06:36.359Z,14.90
2018-09-30T21:09:09.690Z,15.00
2018-09-30T21:11:38.902Z,14.80
2018-09-30T21:14:08.108Z,14.80
2018-09-30T21:16:37.555Z,14.90
2018-09-30T21:19:06.703Z,14.80
2018-09-30T21:21:35.929Z,14.90
2018-09-30T21:24:05.562Z,14.90
2018-09-30T21:26:34.768Z,14.90
2018-09-30T21:29:03.952Z,14.80
2018-09-30T21:31:33.202Z,14.80
2018-09-30T21:34:03.148Z,15.00
2018-09-30T21:36:32.733Z,15.10
2018-09-30T21:39:02.267Z,15.10
2018-09-30T21:41:31.529Z,15.00
2018-09-30T21:44:00.762Z,15.00
2018-09-30T21:46:30.096Z,15.10
2018-09-30T21:48:59.412Z,15.10
2018-09-30T21:51:28.515Z,14.90
2018-09-30T21:53:57.672Z,14.80
2018-09-30T21:56:26.871Z,14.80
2018-09-30T21:58:56.334Z,14.90
2018-09-30T22:01:26.721Z,14.70
2018-09-30T22:03:55.961Z,14.70
2018-09-30T22:06:25.182Z,14.80
2018-09-30T22:08:54.474Z,14.70
2018-09-30T22:11:23.727Z,14.70
2018-09-30T22:13:52.985Z,14.70
2018-09-30T22:16:22.233Z,14.70
2018-09-30T22:18:51.419Z,14.50
2018-09-30T22:21:20.672Z,14.60
2018-09-30T22:23:49.907Z,14.60
2018-09-30T22:26:19.073Z,14.60
2018-09-30T22:28:48.230Z,14.70
2018-09-30T22:31:17.430Z,14.60
2018-09-30T22:33:46.626Z,14.70
2018-09-30T22:36:15.860Z,14.60
2018-09-30T22:38:51.273Z,14.60
2018-09-30T22:41:20.466Z,14.50
2018-09-30T22:43:56.524Z,14.50
2018-09-30T22:46:25.784Z,14.50
2018-09-30T22:48:55.022Z,14.60
2018-09-30T22:51:24.344Z,14.50
2018-09-30T22:53:53.549Z,14.50
2018-09-30T22:56:22.790Z,14.60
2018-09-30T22:58:51.932Z,14.60
2018-09-30T23:01:21.127Z,14.60
2018-09-30T23:03:50.445Z,14.50
2018-09-30T23:06:19.695Z,14.50
2018-09-30T23:08:48.850Z,14.50
2018-09-30T23:11:18.010Z,14.50
2018-09-30T23:13:47.136Z,14.50
2018-09-30T23:16:16.355Z,14.40
2018-09-30T23:18:45.550Z,14.30
2018-09-30T23:21:14.921Z,14.20
2018-09-30T23:23:44.072Z,14.20
2018-09-30T23:26:13.371Z,14.20
2018-09-30T23:28:42.523Z,14.20
2018-09-30T23:31:11.785Z,14.30
2018-09-30T23:33:40.956Z,14.10
2018-09-30T23:36:10.115Z,14.10
2018-09-30T23:38:39.519Z,14.10
2018-09-30T23:41:08.890Z,14.20
2018-09-30T23:43:38.255Z,14.30
2018-09-30T23:46:07.656Z,14.30
2018-09-30T23:48:37.038Z,14.30
2018-09-30T23:51:06.712Z,14.40
2018-09-30T23:53:35.919Z,14.40
2018-09-30T23:56:05.427Z,14.30
2018-09-30T23:58:34.829Z,14.40
